sensor_id;sensor_type;location;lat;lon;timestamp;pressure;altitude;pressure_sealevel;temperature;humidity
44839;BME280;30576;42.098;24.876;2023-04-20T00:00:20;99323.63;;;12.39;89.14
44839;BME280;30576;42.098;24.876;2023-04-20T00:02:46;99326.25;;;12.40;88.65
44839;BME280;30576;42.098;24.876;2023-04-20T00:05:11;99322.00;;;12.34;88.79
44839;BME280;30576;42.098;24.876;2023-04-20T00:07:37;99321.28;;;12.28;88.51
44839;BME280;30576;42.098;24.876;2023-04-20T00:10:05;99321.38;;;12.25;88.90
44839;BME280;30576;42.098;24.876;2023-04-20T00:12:31;99318.75;;;12.25;88.74
44839;BME280;30576;42.098;24.876;2023-04-20T00:14:57;99315.28;;;12.23;88.95
44839;BME280;30576;42.098;24.876;2023-04-20T00:17:22;99318.13;;;12.15;88.45
44839;BME280;30576;42.098;24.876;2023-04-20T00:19:47;99315.50;;;12.15;88.42
44839;BME280;30576;42.098;24.876;2023-04-20T00:22:13;99313.09;;;12.06;88.51
44839;BME280;30576;42.098;24.876;2023-04-20T00:24:38;99314.81;;;12.08;86.95
44839;BME280;30576;42.098;24.876;2023-04-20T00:27:03;99307.78;;;12.07;86.07
44839;BME280;30576;42.098;24.876;2023-04-20T00:29:29;99310.75;;;11.95;85.08
44839;BME280;30576;42.098;24.876;2023-04-20T00:31:54;99307.56;;;11.80;85.02
44839;BME280;30576;42.098;24.876;2023-04-20T00:34:20;99306.25;;;11.62;85.98
44839;BME280;30576;42.098;24.876;2023-04-20T00:36:45;99304.75;;;11.52;86.26
44839;BME280;30576;42.098;24.876;2023-04-20T00:39:10;99304.53;;;11.61;86.27
44839;BME280;30576;42.098;24.876;2023-04-20T00:41:36;99311.31;;;11.72;85.85
44839;BME280;30576;42.098;24.876;2023-04-20T00:44:01;99307.69;;;11.76;85.43
44839;BME280;30576;42.098;24.876;2023-04-20T00:46:26;99307.19;;;11.60;85.01
44839;BME280;30576;42.098;24.876;2023-04-20T00:48:52;99311.00;;;11.50;85.67
44839;BME280;30576;42.098;24.876;2023-04-20T00:57:23;99310.38;;;11.38;85.06
44839;BME280;30576;42.098;24.876;2023-04-20T00:59:50;99317.44;;;11.38;84.97
44839;BME280;30576;42.098;24.876;2023-04-20T01:02:16;99312.09;;;11.41;85.46
44839;BME280;30576;42.098;24.876;2023-04-20T01:04:43;99314.69;;;11.42;84.92
44839;BME280;30576;42.098;24.876;2023-04-20T01:07:09;99314.53;;;11.49;84.32
44839;BME280;30576;42.098;24.876;2023-04-20T01:09:37;99309.78;;;11.27;84.57
44839;BME280;30576;42.098;24.876;2023-04-20T01:12:04;99310.53;;;11.32;84.51
44839;BME280;30576;42.098;24.876;2023-04-20T01:14:30;99304.22;;;11.38;83.91
44839;BME280;30576;42.098;24.876;2023-04-20T01:16:58;99299.41;;;11.19;84.61
44839;BME280;30576;42.098;24.876;2023-04-20T01:19:24;99300.22;;;11.21;84.69
44839;BME280;30576;42.098;24.876;2023-04-20T01:21:50;99301.22;;;11.17;85.09
44839;BME280;30576;42.098;24.876;2023-04-20T01:24:16;99297.50;;;11.24;85.10
44839;BME280;30576;42.098;24.876;2023-04-20T01:26:41;99299.25;;;11.25;85.35
44839;BME280;30576;42.098;24.876;2023-04-20T01:29:06;99295.16;;;11.12;86.18
44839;BME280;30576;42.098;24.876;2023-04-20T01:31:33;99300.25;;;11.20;87.04
44839;BME280;30576;42.098;24.876;2023-04-20T01:33:58;99291.88;;;11.38;87.68
44839;BME280;30576;42.098;24.876;2023-04-20T01:36:23;99300.66;;;11.40;88.10
44839;BME280;30576;42.098;24.876;2023-04-20T01:38:49;99292.16;;;11.27;89.20
44839;BME280;30576;42.098;24.876;2023-04-20T01:41:14;99294.97;;;11.20;90.46
44839;BME280;30576;42.098;24.876;2023-04-20T01:43:40;99290.44;;;11.26;90.63
44839;BME280;30576;42.098;24.876;2023-04-20T01:46:06;99292.81;;;11.37;89.99
44839;BME280;30576;42.098;24.876;2023-04-20T01:48:32;99290.25;;;11.34;89.68
44839;BME280;30576;42.098;24.876;2023-04-20T01:50:57;99279.88;;;11.26;89.88
44839;BME280;30576;42.098;24.876;2023-04-20T01:53:23;99288.00;;;11.17;90.04
44839;BME280;30576;42.098;24.876;2023-04-20T01:55:49;99284.59;;;11.12;90.61
44839;BME280;30576;42.098;24.876;2023-04-20T01:58:15;99279.59;;;11.00;91.54
44839;BME280;30576;42.098;24.876;2023-04-20T02:00:40;99281.59;;;10.90;92.77
44839;BME280;30576;42.098;24.876;2023-04-20T02:03:05;99280.59;;;10.96;92.48
44839;BME280;30576;42.098;24.876;2023-04-20T02:05:31;99272.78;;;10.91;92.64
44839;BME280;30576;42.098;24.876;2023-04-20T02:07:56;99279.66;;;10.98;92.26
44839;BME280;30576;42.098;24.876;2023-04-20T02:10:21;99284.16;;;10.93;92.24
44839;BME280;30576;42.098;24.876;2023-04-20T02:12:47;99282.09;;;11.06;91.07
44839;BME280;30576;42.098;24.876;2023-04-20T02:15:13;99279.16;;;11.18;91.18
44839;BME280;30576;42.098;24.876;2023-04-20T02:17:38;99281.84;;;11.17;89.94
44839;BME280;30576;42.098;24.876;2023-04-20T02:20:05;99282.44;;;11.29;89.46
44839;BME280;30576;42.098;24.876;2023-04-20T02:22:32;99280.56;;;10.97;89.99
44839;BME280;30576;42.098;24.876;2023-04-20T02:24:59;99285.16;;;10.87;90.00
44839;BME280;30576;42.098;24.876;2023-04-20T02:27:25;99277.09;;;10.93;90.45
44839;BME280;30576;42.098;24.876;2023-04-20T02:29:51;99276.81;;;11.06;89.82
44839;BME280;30576;42.098;24.876;2023-04-20T02:32:16;99281.38;;;10.99;89.92
44839;BME280;30576;42.098;24.876;2023-04-20T02:34:41;99279.88;;;10.87;90.29
44839;BME280;30576;42.098;24.876;2023-04-20T02:37:07;99288.69;;;10.88;90.36
44839;BME280;30576;42.098;24.876;2023-04-20T02:39:32;99282.50;;;10.89;90.44
44839;BME280;30576;42.098;24.876;2023-04-20T02:41:57;99292.22;;;10.87;88.86
44839;BME280;30576;42.098;24.876;2023-04-20T02:44:23;99290.66;;;10.78;88.95
44839;BME280;30576;42.098;24.876;2023-04-20T02:46:48;99292.25;;;10.85;89.03
44839;BME280;30576;42.098;24.876;2023-04-20T02:49:13;99285.69;;;11.03;88.30
44839;BME280;30576;42.098;24.876;2023-04-20T02:51:39;99288.84;;;11.19;87.01
44839;BME280;30576;42.098;24.876;2023-04-20T02:54:05;99284.75;;;11.06;86.22
44839;BME280;30576;42.098;24.876;2023-04-20T02:56:30;99286.19;;;11.19;86.09
44839;BME280;30576;42.098;24.876;2023-04-20T02:58:55;99293.25;;;11.19;85.10
44839;BME280;30576;42.098;24.876;2023-04-20T03:01:21;99289.66;;;11.21;84.19
44839;BME280;30576;42.098;24.876;2023-04-20T03:03:46;99293.81;;;11.32;83.21
44839;BME280;30576;42.098;24.876;2023-04-20T03:06:11;99295.81;;;11.22;83.44
44839;BME280;30576;42.098;24.876;2023-04-20T03:08:37;99292.69;;;11.42;82.87
44839;BME280;30576;42.098;24.876;2023-04-20T03:11:03;99291.84;;;11.40;82.30
44839;BME280;30576;42.098;24.876;2023-04-20T03:13:28;99297.44;;;11.27;82.20
44839;BME280;30576;42.098;24.876;2023-04-20T03:15:55;99291.69;;;11.10;83.39
44839;BME280;30576;42.098;24.876;2023-04-20T03:18:20;99290.81;;;11.11;82.43
44839;BME280;30576;42.098;24.876;2023-04-20T03:20:46;99291.75;;;11.07;81.54
44839;BME280;30576;42.098;24.876;2023-04-20T03:23:11;99301.50;;;11.05;81.26
44839;BME280;30576;42.098;24.876;2023-04-20T03:25:38;99293.47;;;11.09;80.86
44839;BME280;30576;42.098;24.876;2023-04-20T03:28:03;99295.88;;;11.20;80.18
44839;BME280;30576;42.098;24.876;2023-04-20T03:30:28;99296.97;;;11.10;80.69
44839;BME280;30576;42.098;24.876;2023-04-20T03:32:54;99289.03;;;11.11;79.36
44839;BME280;30576;42.098;24.876;2023-04-20T03:35:19;99289.16;;;11.05;79.81
44839;BME280;30576;42.098;24.876;2023-04-20T03:37:45;99288.28;;;11.06;79.62
44839;BME280;30576;42.098;24.876;2023-04-20T03:40:10;99288.22;;;11.08;80.02
44839;BME280;30576;42.098;24.876;2023-04-20T03:42:36;99285.88;;;10.96;79.81
44839;BME280;30576;42.098;24.876;2023-04-20T03:45:01;99288.38;;;11.02;79.66
44839;BME280;30576;42.098;24.876;2023-04-20T03:47:27;99291.72;;;11.08;79.22
44839;BME280;30576;42.098;24.876;2023-04-20T03:49:52;99288.41;;;11.00;79.88
44839;BME280;30576;42.098;24.876;2023-04-20T03:52:17;99285.44;;;11.14;79.16
44839;BME280;30576;42.098;24.876;2023-04-20T03:54:43;99291.84;;;11.04;79.43
44839;BME280;30576;42.098;24.876;2023-04-20T03:57:08;99292.97;;;10.92;79.50
44839;BME280;30576;42.098;24.876;2023-04-20T03:59:33;99291.97;;;10.98;79.48
44839;BME280;30576;42.098;24.876;2023-04-20T04:01:59;99295.09;;;11.15;79.23
44839;BME280;30576;42.098;24.876;2023-04-20T04:04:24;99293.97;;;11.25;78.27
44839;BME280;30576;42.098;24.876;2023-04-20T04:06:50;99298.22;;;11.33;77.75
44839;BME280;30576;42.098;24.876;2023-04-20T04:09:16;99295.78;;;11.23;77.95
44839;BME280;30576;42.098;24.876;2023-04-20T04:11:42;99306.44;;;11.20;77.01
44839;BME280;30576;42.098;24.876;2023-04-20T04:14:07;99299.41;;;11.19;77.69
44839;BME280;30576;42.098;24.876;2023-04-20T04:16:32;99303.16;;;11.09;77.41
44839;BME280;30576;42.098;24.876;2023-04-20T04:18:58;99303.63;;;11.26;77.17
44839;BME280;30576;42.098;24.876;2023-04-20T04:21:23;99302.59;;;11.32;76.85
44839;BME280;30576;42.098;24.876;2023-04-20T04:23:48;99304.19;;;11.39;76.18
44839;BME280;30576;42.098;24.876;2023-04-20T04:26:14;99310.16;;;11.47;75.84
44839;BME280;30576;42.098;24.876;2023-04-20T04:28:39;99308.63;;;11.39;76.62
44839;BME280;30576;42.098;24.876;2023-04-20T04:31:05;99309.31;;;11.45;76.04
44839;BME280;30576;42.098;24.876;2023-04-20T04:33:31;99308.88;;;11.64;75.32
44839;BME280;30576;42.098;24.876;2023-04-20T04:35:58;99312.84;;;11.80;74.23
44839;BME280;30576;42.098;24.876;2023-04-20T04:38:24;99313.44;;;11.92;73.98
44839;BME280;30576;42.098;24.876;2023-04-20T04:40:50;99316.97;;;11.92;74.70
44839;BME280;30576;42.098;24.876;2023-04-20T04:43:18;99308.78;;;12.02;74.42
44839;BME280;30576;42.098;24.876;2023-04-20T04:45:43;99314.13;;;12.00;74.95
44839;BME280;30576;42.098;24.876;2023-04-20T04:48:09;99316.13;;;12.23;73.65
44839;BME280;30576;42.098;24.876;2023-04-20T04:50:37;99317.41;;;12.41;73.12
44839;BME280;30576;42.098;24.876;2023-04-20T04:53:02;99315.22;;;12.56;73.53
44839;BME280;30576;42.098;24.876;2023-04-20T04:55:27;99320.06;;;12.71;72.66
44839;BME280;30576;42.098;24.876;2023-04-20T04:57:53;99316.91;;;12.88;72.30
44839;BME280;30576;42.098;24.876;2023-04-20T05:00:18;99320.69;;;12.81;71.85
44839;BME280;30576;42.098;24.876;2023-04-20T05:02:43;99320.81;;;12.76;70.85
44839;BME280;30576;42.098;24.876;2023-04-20T05:05:09;99328.00;;;12.71;72.37
44839;BME280;30576;42.098;24.876;2023-04-20T05:07:34;99318.16;;;12.76;72.57
44839;BME280;30576;42.098;24.876;2023-04-20T05:10:01;99319.56;;;12.88;72.59
44839;BME280;30576;42.098;24.876;2023-04-20T05:12:26;99327.72;;;13.10;71.19
44839;BME280;30576;42.098;24.876;2023-04-20T05:14:52;99314.03;;;12.96;71.63
44839;BME280;30576;42.098;24.876;2023-04-20T05:17:17;99314.97;;;12.95;70.41
44839;BME280;30576;42.098;24.876;2023-04-20T05:19:42;99322.00;;;12.94;71.07
44839;BME280;30576;42.098;24.876;2023-04-20T05:22:08;99309.84;;;13.17;69.68
44839;BME280;30576;42.098;24.876;2023-04-20T05:24:33;99316.69;;;13.24;70.54
44839;BME280;30576;42.098;24.876;2023-04-20T05:26:58;99319.03;;;13.35;69.21
44839;BME280;30576;42.098;24.876;2023-04-20T05:29:25;99318.03;;;13.37;69.26
44839;BME280;30576;42.098;24.876;2023-04-20T05:31:50;99319.63;;;13.43;68.30
44839;BME280;30576;42.098;24.876;2023-04-20T05:34:15;99317.91;;;13.42;67.86
44839;BME280;30576;42.098;24.876;2023-04-20T05:36:41;99300.53;;;13.33;68.79
44839;BME280;30576;42.098;24.876;2023-04-20T05:39:06;99319.25;;;13.55;68.62
44839;BME280;30576;42.098;24.876;2023-04-20T05:41:32;99324.81;;;13.73;68.97
44839;BME280;30576;42.098;24.876;2023-04-20T05:43:57;99318.50;;;13.77;67.80
44839;BME280;30576;42.098;24.876;2023-04-20T05:46:22;99321.28;;;13.74;67.55
44839;BME280;30576;42.098;24.876;2023-04-20T05:48:48;99329.31;;;13.71;66.32
44839;BME280;30576;42.098;24.876;2023-04-20T05:51:13;99329.44;;;13.68;66.12
44839;BME280;30576;42.098;24.876;2023-04-20T05:53:38;99333.09;;;13.64;66.20
44839;BME280;30576;42.098;24.876;2023-04-20T05:56:04;99332.22;;;13.90;66.60
44839;BME280;30576;42.098;24.876;2023-04-20T05:58:31;99333.25;;;13.86;63.77
44839;BME280;30576;42.098;24.876;2023-04-20T06:00:57;99336.22;;;14.02;65.26
44839;BME280;30576;42.098;24.876;2023-04-20T06:03:22;99338.66;;;14.33;66.65
44839;BME280;30576;42.098;24.876;2023-04-20T06:05:47;99339.25;;;14.41;63.00
44839;BME280;30576;42.098;24.876;2023-04-20T06:08:13;99340.09;;;14.18;64.54
44839;BME280;30576;42.098;24.876;2023-04-20T06:10:38;99338.72;;;14.31;63.12
44839;BME280;30576;42.098;24.876;2023-04-20T06:13:03;99332.63;;;14.53;63.66
44839;BME280;30576;42.098;24.876;2023-04-20T06:15:29;99324.34;;;14.62;63.38
44839;BME280;30576;42.098;24.876;2023-04-20T06:17:54;99334.03;;;14.87;61.12
44839;BME280;30576;42.098;24.876;2023-04-20T06:20:19;99325.03;;;14.91;63.47
44839;BME280;30576;42.098;24.876;2023-04-20T06:22:45;99329.03;;;15.03;62.12
44839;BME280;30576;42.098;24.876;2023-04-20T06:25:10;99323.09;;;15.18;62.52
44839;BME280;30576;42.098;24.876;2023-04-20T06:27:42;99325.50;;;15.25;61.95
44839;BME280;30576;42.098;24.876;2023-04-20T06:30:07;99335.31;;;15.22;61.54
44839;BME280;30576;42.098;24.876;2023-04-20T06:32:33;99324.94;;;15.61;60.96
44839;BME280;30576;42.098;24.876;2023-04-20T06:34:59;99336.72;;;15.75;60.21
44839;BME280;30576;42.098;24.876;2023-04-20T06:37:25;99336.84;;;15.50;57.62
44839;BME280;30576;42.098;24.876;2023-04-20T06:39:52;99331.19;;;15.37;60.68
44839;BME280;30576;42.098;24.876;2023-04-20T06:42:18;99328.81;;;15.52;60.08
44839;BME280;30576;42.098;24.876;2023-04-20T06:44:43;99335.91;;;15.31;60.33
44839;BME280;30576;42.098;24.876;2023-04-20T06:47:09;99321.88;;;15.49;59.79
44839;BME280;30576;42.098;24.876;2023-04-20T06:49:34;99336.63;;;15.79;59.44
44839;BME280;30576;42.098;24.876;2023-04-20T06:52:01;99321.91;;;16.11;58.33
44839;BME280;30576;42.098;24.876;2023-04-20T06:54:27;99339.38;;;15.98;57.87
44839;BME280;30576;42.098;24.876;2023-04-20T06:56:52;99327.94;;;15.73;58.35
44839;BME280;30576;42.098;24.876;2023-04-20T06:59:17;99341.06;;;15.78;58.20
44839;BME280;30576;42.098;24.876;2023-04-20T07:01:43;99337.75;;;15.93;58.12
44839;BME280;30576;42.098;24.876;2023-04-20T07:04:08;99334.66;;;15.62;56.35
44839;BME280;30576;42.098;24.876;2023-04-20T07:06:34;99338.81;;;15.89;58.12
44839;BME280;30576;42.098;24.876;2023-04-20T07:08:59;99337.97;;;15.67;56.18
44839;BME280;30576;42.098;24.876;2023-04-20T07:11:24;99338.75;;;15.69;56.36
44839;BME280;30576;42.098;24.876;2023-04-20T07:13:50;99337.66;;;15.74;55.00
44839;BME280;30576;42.098;24.876;2023-04-20T07:16:15;99348.59;;;16.09;53.88
44839;BME280;30576;42.098;24.876;2023-04-20T07:18:40;99338.50;;;16.18;53.21
44839;BME280;30576;42.098;24.876;2023-04-20T07:21:06;99338.56;;;16.56;53.52
44839;BME280;30576;42.098;24.876;2023-04-20T07:23:32;99344.22;;;16.69;52.10
44839;BME280;30576;42.098;24.876;2023-04-20T07:25:58;99335.34;;;16.68;51.01
44839;BME280;30576;42.098;24.876;2023-04-20T07:28:23;99329.09;;;17.09;53.28
44839;BME280;30576;42.098;24.876;2023-04-20T07:30:48;99329.69;;;17.33;53.41
44839;BME280;30576;42.098;24.876;2023-04-20T07:33:14;99331.72;;;17.82;52.85
44839;BME280;30576;42.098;24.876;2023-04-20T07:35:39;99334.59;;;17.96;51.51
44839;BME280;30576;42.098;24.876;2023-04-20T07:38:04;99328.06;;;17.84;50.83
44839;BME280;30576;42.098;24.876;2023-04-20T07:40:30;99337.50;;;17.55;49.80
44839;BME280;30576;42.098;24.876;2023-04-20T07:42:55;99328.91;;;17.31;51.45
44839;BME280;30576;42.098;24.876;2023-04-20T07:45:20;99329.34;;;17.22;51.37
44839;BME280;30576;42.098;24.876;2023-04-20T07:47:46;99331.38;;;17.89;50.61
44839;BME280;30576;42.098;24.876;2023-04-20T07:50:15;99335.19;;;17.84;51.04
44839;BME280;30576;42.098;24.876;2023-04-20T07:52:40;99326.34;;;18.01;51.28
44839;BME280;30576;42.098;24.876;2023-04-20T07:55:06;99324.44;;;18.20;49.95
44839;BME280;30576;42.098;24.876;2023-04-20T07:57:33;99328.22;;;17.99;49.26
44839;BME280;30576;42.098;24.876;2023-04-20T07:59:58;99330.31;;;17.75;49.69
44839;BME280;30576;42.098;24.876;2023-04-20T08:02:24;99334.38;;;17.64;49.42
44839;BME280;30576;42.098;24.876;2023-04-20T08:04:49;99321.06;;;17.82;49.44
44839;BME280;30576;42.098;24.876;2023-04-20T08:07:14;99326.03;;;17.89;51.46
44839;BME280;30576;42.098;24.876;2023-04-20T08:09:40;99330.31;;;17.75;47.98
44839;BME280;30576;42.098;24.876;2023-04-20T08:12:05;99322.94;;;17.80;50.99
44839;BME280;30576;42.098;24.876;2023-04-20T08:14:31;99324.06;;;17.93;48.06
44839;BME280;30576;42.098;24.876;2023-04-20T08:16:57;99323.22;;;17.56;49.69
44839;BME280;30576;42.098;24.876;2023-04-20T08:19:23;99325.03;;;17.92;49.58
44839;BME280;30576;42.098;24.876;2023-04-20T08:21:49;99317.19;;;17.70;50.58
44839;BME280;30576;42.098;24.876;2023-04-20T08:24:15;99318.56;;;17.96;49.29
44839;BME280;30576;42.098;24.876;2023-04-20T08:26:41;99322.34;;;18.10;49.75
44839;BME280;30576;42.098;24.876;2023-04-20T08:29:07;99316.00;;;18.46;47.80
44839;BME280;30576;42.098;24.876;2023-04-20T08:31:32;99313.44;;;18.27;49.55
44839;BME280;30576;42.098;24.876;2023-04-20T08:33:58;99314.94;;;18.15;50.31
44839;BME280;30576;42.098;24.876;2023-04-20T08:36:23;99313.78;;;18.20;49.12
44839;BME280;30576;42.098;24.876;2023-04-20T08:39:05;99318.50;;;18.49;50.37
44839;BME280;30576;42.098;24.876;2023-04-20T08:41:31;99309.38;;;18.37;48.10
44839;BME280;30576;42.098;24.876;2023-04-20T08:43:56;99319.44;;;18.14;47.45
44839;BME280;30576;42.098;24.876;2023-04-20T08:46:22;99305.94;;;18.17;49.15
44839;BME280;30576;42.098;24.876;2023-04-20T08:48:48;99304.03;;;18.37;48.02
44839;BME280;30576;42.098;24.876;2023-04-20T08:51:14;99307.09;;;18.29;48.47
44839;BME280;30576;42.098;24.876;2023-04-20T08:53:41;99294.06;;;18.56;51.16
44839;BME280;30576;42.098;24.876;2023-04-20T08:56:06;99301.31;;;18.70;47.40
44839;BME280;30576;42.098;24.876;2023-04-20T08:58:32;99298.28;;;18.94;47.47
44839;BME280;30576;42.098;24.876;2023-04-20T09:00:57;99294.31;;;19.01;48.26
44839;BME280;30576;42.098;24.876;2023-04-20T09:03:34;99292.16;;;18.92;49.02
44839;BME280;30576;42.098;24.876;2023-04-20T09:06:00;99288.00;;;19.02;46.67
44839;BME280;30576;42.098;24.876;2023-04-20T09:08:33;99287.56;;;19.26;47.64
44839;BME280;30576;42.098;24.876;2023-04-20T09:10:58;99294.13;;;19.04;46.41
44839;BME280;30576;42.098;24.876;2023-04-20T09:13:24;99289.91;;;19.16;49.24
44839;BME280;30576;42.098;24.876;2023-04-20T09:15:49;99294.03;;;19.38;48.00
44839;BME280;30576;42.098;24.876;2023-04-20T09:18:15;99267.41;;;19.04;49.30
44839;BME280;30576;42.098;24.876;2023-04-20T09:20:41;99286.38;;;19.00;50.07
44839;BME280;30576;42.098;24.876;2023-04-20T09:23:10;99300.88;;;19.11;49.00
44839;BME280;30576;42.098;24.876;2023-04-20T09:25:36;99295.69;;;19.08;50.21
44839;BME280;30576;42.098;24.876;2023-04-20T09:28:02;99292.28;;;18.73;45.35
44839;BME280;30576;42.098;24.876;2023-04-20T09:33:02;99288.34;;;18.80;46.99
44839;BME280;30576;42.098;24.876;2023-04-20T09:35:28;99276.19;;;18.41;49.17
44839;BME280;30576;42.098;24.876;2023-04-20T09:37:53;99283.44;;;18.55;47.87
44839;BME280;30576;42.098;24.876;2023-04-20T09:40:18;99280.78;;;18.88;51.27
44839;BME280;30576;42.098;24.876;2023-04-20T09:42:47;99282.91;;;19.29;49.72
44839;BME280;30576;42.098;24.876;2023-04-20T09:45:12;99273.75;;;19.33;46.94
44839;BME280;30576;42.098;24.876;2023-04-20T09:47:38;99280.59;;;19.07;46.65
44839;BME280;30576;42.098;24.876;2023-04-20T09:50:08;99277.97;;;19.38;45.96
44839;BME280;30576;42.098;24.876;2023-04-20T09:52:34;99272.94;;;19.63;46.08
44839;BME280;30576;42.098;24.876;2023-04-20T09:55:01;99273.38;;;19.86;45.12
44839;BME280;30576;42.098;24.876;2023-04-20T09:57:27;99271.59;;;19.71;44.56
44839;BME280;30576;42.098;24.876;2023-04-20T09:59:52;99265.47;;;19.38;47.98
44839;BME280;30576;42.098;24.876;2023-04-20T10:02:18;99251.59;;;19.31;46.42
44839;BME280;30576;42.098;24.876;2023-04-20T10:04:59;99249.84;;;19.00;44.32
44839;BME280;30576;42.098;24.876;2023-04-20T10:07:26;99253.56;;;18.64;47.37
44839;BME280;30576;42.098;24.876;2023-04-20T10:10:01;99246.47;;;19.12;47.82
44839;BME280;30576;42.098;24.876;2023-04-20T10:12:27;99237.56;;;19.12;47.73
44839;BME280;30576;42.098;24.876;2023-04-20T10:14:55;99244.34;;;19.64;47.56
44839;BME280;30576;42.098;24.876;2023-04-20T10:17:31;99236.72;;;19.72;47.89
44839;BME280;30576;42.098;24.876;2023-04-20T10:19:57;99237.66;;;19.87;46.20
44839;BME280;30576;42.098;24.876;2023-04-20T10:22:29;99240.09;;;19.45;47.25
44839;BME280;30576;42.098;24.876;2023-04-20T10:24:58;99199.25;;;19.27;47.55
44839;BME280;30576;42.098;24.876;2023-04-20T10:27:24;99233.47;;;19.67;48.81
44839;BME280;30576;42.098;24.876;2023-04-20T10:29:49;99242.44;;;19.96;48.16
44839;BME280;30576;42.098;24.876;2023-04-20T10:32:22;99238.53;;;20.02;47.00
44839;BME280;30576;42.098;24.876;2023-04-20T10:34:48;99233.78;;;19.77;45.70
44839;BME280;30576;42.098;24.876;2023-04-20T10:37:23;99225.50;;;19.51;47.40
44839;BME280;30576;42.098;24.876;2023-04-20T10:39:50;99231.28;;;19.74;46.56
44839;BME280;30576;42.098;24.876;2023-04-20T10:42:15;99234.69;;;19.61;46.29
44839;BME280;30576;42.098;24.876;2023-04-20T10:44:50;99230.13;;;20.23;48.94
44839;BME280;30576;42.098;24.876;2023-04-20T10:47:16;99227.25;;;20.26;48.73
44839;BME280;30576;42.098;24.876;2023-04-20T10:49:42;99225.53;;;20.53;46.09
44839;BME280;30576;42.098;24.876;2023-04-20T10:52:07;99227.91;;;20.72;46.68
44839;BME280;30576;42.098;24.876;2023-04-20T10:54:36;99226.06;;;20.58;48.09
44839;BME280;30576;42.098;24.876;2023-04-20T10:57:03;99218.84;;;20.32;42.60
44839;BME280;30576;42.098;24.876;2023-04-20T10:59:29;99227.41;;;19.94;44.63
44839;BME280;30576;42.098;24.876;2023-04-20T11:01:54;99222.88;;;20.39;45.64
44839;BME280;30576;42.098;24.876;2023-04-20T11:04:29;99228.81;;;20.30;43.07
44839;BME280;30576;42.098;24.876;2023-04-20T11:07:02;99228.59;;;20.18;45.83
44839;BME280;30576;42.098;24.876;2023-04-20T11:09:28;99223.97;;;20.64;47.81
44839;BME280;30576;42.098;24.876;2023-04-20T11:11:59;99221.88;;;20.40;40.27
44839;BME280;30576;42.098;24.876;2023-04-20T11:14:26;99220.97;;;20.27;45.87
44839;BME280;30576;42.098;24.876;2023-04-20T11:16:51;99223.03;;;20.50;46.76
44839;BME280;30576;42.098;24.876;2023-04-20T11:21:51;99220.09;;;20.41;43.54
44839;BME280;30576;42.098;24.876;2023-04-20T11:26:45;99208.31;;;20.57;41.51
44839;BME280;30576;42.098;24.876;2023-04-20T11:29:25;99198.63;;;20.55;40.14
44839;BME280;30576;42.098;24.876;2023-04-20T11:31:50;99203.78;;;20.87;43.93
44839;BME280;30576;42.098;24.876;2023-04-20T11:34:16;99199.31;;;20.73;42.52
44839;BME280;30576;42.098;24.876;2023-04-20T11:36:42;99209.03;;;19.73;43.75
44839;BME280;30576;42.098;24.876;2023-04-20T11:39:07;99197.19;;;19.32;44.65
44839;BME280;30576;42.098;24.876;2023-04-20T11:41:33;99196.84;;;19.23;45.11
44839;BME280;30576;42.098;24.876;2023-04-20T11:43:59;99195.00;;;19.54;44.65
44839;BME280;30576;42.098;24.876;2023-04-20T11:46:25;99191.88;;;19.77;46.52
44839;BME280;30576;42.098;24.876;2023-04-20T11:48:50;99194.47;;;19.63;43.52
44839;BME280;30576;42.098;24.876;2023-04-20T11:51:16;99189.91;;;19.65;39.82
44839;BME280;30576;42.098;24.876;2023-04-20T11:53:41;99184.56;;;19.65;40.81
44839;BME280;30576;42.098;24.876;2023-04-20T11:56:06;99180.09;;;20.23;43.67
44839;BME280;30576;42.098;24.876;2023-04-20T11:58:32;99179.63;;;20.31;41.87
44839;BME280;30576;42.098;24.876;2023-04-20T12:00:58;99176.88;;;20.03;39.06
44839;BME280;30576;42.098;24.876;2023-04-20T12:03:24;99177.34;;;20.10;41.61
44839;BME280;30576;42.098;24.876;2023-04-20T12:05:49;99167.97;;;20.17;39.85
44839;BME280;30576;42.098;24.876;2023-04-20T12:08:15;99163.75;;;20.13;39.11
44839;BME280;30576;42.098;24.876;2023-04-20T12:10:41;99166.25;;;19.88;38.67
44839;BME280;30576;42.098;24.876;2023-04-20T12:13:06;99160.25;;;20.13;43.14
44839;BME280;30576;42.098;24.876;2023-04-20T12:15:32;99164.53;;;20.30;39.53
44839;BME280;30576;42.098;24.876;2023-04-20T12:17:57;99163.50;;;20.60;44.87
44839;BME280;30576;42.098;24.876;2023-04-20T12:20:22;99168.41;;;20.38;42.15
44839;BME280;30576;42.098;24.876;2023-04-20T12:22:47;99156.41;;;20.31;42.75
44839;BME280;30576;42.098;24.876;2023-04-20T12:25:13;99155.16;;;20.79;45.68
44839;BME280;30576;42.098;24.876;2023-04-20T12:27:38;99160.47;;;20.51;41.90
44839;BME280;30576;42.098;24.876;2023-04-20T12:30:04;99153.44;;;20.78;41.76
44839;BME280;30576;42.098;24.876;2023-04-20T12:32:29;99152.88;;;20.72;39.89
44839;BME280;30576;42.098;24.876;2023-04-20T12:34:55;99150.00;;;21.03;43.41
44839;BME280;30576;42.098;24.876;2023-04-20T12:37:20;99148.66;;;21.36;39.52
44839;BME280;30576;42.098;24.876;2023-04-20T12:39:45;99141.53;;;21.09;38.53
44839;BME280;30576;42.098;24.876;2023-04-20T12:42:11;99143.16;;;20.84;36.54
44839;BME280;30576;42.098;24.876;2023-04-20T12:44:36;99150.06;;;20.88;38.86
44839;BME280;30576;42.098;24.876;2023-04-20T12:47:01;99133.28;;;20.85;39.53
44839;BME280;30576;42.098;24.876;2023-04-20T12:49:27;99127.28;;;21.21;40.75
44839;BME280;30576;42.098;24.876;2023-04-20T12:51:52;99126.66;;;21.31;36.05
44839;BME280;30576;42.098;24.876;2023-04-20T12:54:17;99130.41;;;21.28;37.55
44839;BME280;30576;42.098;24.876;2023-04-20T12:56:43;99126.72;;;21.69;39.65